Terminal Aerodrome Forecast
Issued by NWS

Home | Current Version | Previous Version | Text Only | Print | Product List | Glossary On
Versions: 1 2 3 4 5 6 7 8 9 10 11 12 13 14 15 16 17 18 19 20 21 22 23 24 25 26 27 28 29 30 31 32 33 34 35 36 37 38 39 40 41 42 43 44 45
000
FTUS41 KBTV 271737
TAFPBG
TAF
KPBG 271737Z 2718/2818 23010G29KT P6SM BKN060
     FM271900 23009KT P6SM BKN050
     FM272200 21005KT P6SM BKN090
     FM280000 14006KT P6SM BKN090
     FM280100 VRB03KT P6SM SCT100
     FM281600 13009KT P6SM SCT110=

USA.gov is the U.S. government's official web portal to all federal, state and local government web resources and services.